createdAt,value
2018-08-30T00:00:00.333Z,3.43
2018-08-30T00:02:29.443Z,2.77
2018-08-30T00:04:58.689Z,3.50
2018-08-30T00:07:27.870Z,2.83
2018-08-30T00:09:56.913Z,3.57
2018-08-30T00:12:25.968Z,3.30
2018-08-30T00:14:55.125Z,2.30
2018-08-30T00:17:24.212Z,2.70
2018-08-30T00:19:53.306Z,2.70
2018-08-30T00:22:23.168Z,2.87
2018-08-30T00:24:53.081Z,2.97
2018-08-30T00:27:22.128Z,3.20
2018-08-30T00:29:51.348Z,3.07
2018-08-30T00:32:20.387Z,2.80
2018-08-30T00:34:50.165Z,3.10
2018-08-30T00:37:19.436Z,3.30
2018-08-30T00:39:49.652Z,2.80
2018-08-30T00:42:18.757Z,2.90
2018-08-30T00:44:47.805Z,2.50
2018-08-30T00:47:21.443Z,2.90
2018-08-30T00:49:51.505Z,3.73
2018-08-30T00:52:20.759Z,3.50
2018-08-30T00:54:49.837Z,3.10
2018-08-30T00:57:19.151Z,3.37
2018-08-30T00:59:48.319Z,2.90
2018-08-30T01:02:17.486Z,3.27
2018-08-30T01:04:46.539Z,2.77
2018-08-30T01:07:15.629Z,3.40
2018-08-30T01:09:44.820Z,3.10
2018-08-30T01:12:14.125Z,3.00
2018-08-30T01:14:43.280Z,3.20
2018-08-30T01:17:12.376Z,3.50
2018-08-30T01:19:41.426Z,4.40
2018-08-30T01:22:10.691Z,3.80
2018-08-30T01:24:39.815Z,4.13
2018-08-30T01:27:09.002Z,3.70
2018-08-30T01:29:38.963Z,3.90
2018-08-30T01:32:08.177Z,4.27
2018-08-30T01:34:38.012Z,3.90
2018-08-30T01:37:07.140Z,3.77
2018-08-30T01:39:36.348Z,3.40
2018-08-30T01:42:05.457Z,3.97
2018-08-30T01:44:34.537Z,4.07
2018-08-30T01:47:03.755Z,3.23
2018-08-30T01:49:33.097Z,3.13
2018-08-30T01:52:02.235Z,3.50
2018-08-30T01:54:31.409Z,3.23
2018-08-30T01:57:00.435Z,3.17
2018-08-30T01:59:29.508Z,2.97
2018-08-30T02:01:58.616Z,3.47
2018-08-30T02:04:27.689Z,3.70
2018-08-30T02:06:57.552Z,3.10
2018-08-30T02:09:26.777Z,3.40
2018-08-30T02:11:55.976Z,2.63
2018-08-30T02:14:25.188Z,3.00
2018-08-30T02:16:54.224Z,2.60
2018-08-30T02:19:23.289Z,2.40
2018-08-30T02:21:52.401Z,2.50
2018-08-30T02:24:21.581Z,2.70
2018-08-30T02:26:50.685Z,2.37
2018-08-30T02:29:19.878Z,2.60
2018-08-30T02:31:49.657Z,2.40
2018-08-30T02:34:18.689Z,2.17
2018-08-30T02:36:47.750Z,2.10
2018-08-30T02:39:16.943Z,2.23
2018-08-30T02:41:45.998Z,2.47
2018-08-30T02:44:15.643Z,2.60
2018-08-30T02:46:44.717Z,2.63
2018-08-30T02:49:13.837Z,2.60
2018-08-30T02:51:42.872Z,2.60
2018-08-30T02:54:12.054Z,2.20
2018-08-30T02:56:41.136Z,1.43
2018-08-30T02:59:10.184Z,2.03
2018-08-30T03:01:39.225Z,2.00
2018-08-30T03:04:08.291Z,2.27
2018-08-30T03:06:37.377Z,1.83
2018-08-30T03:09:08.053Z,2.00
2018-08-30T03:11:37.309Z,2.10
2018-08-30T03:14:06.880Z,1.60
2018-08-30T03:16:36.580Z,1.70
2018-08-30T03:19:05.660Z,1.63
2018-08-30T03:21:34.765Z,1.53
2018-08-30T03:24:03.960Z,1.53
2018-08-30T03:26:33.132Z,1.73
2018-08-30T03:29:02.313Z,1.50
2018-08-30T03:31:31.431Z,1.40
2018-08-30T03:34:00.559Z,1.87
2018-08-30T03:36:29.694Z,1.33
2018-08-30T03:38:58.768Z,1.73
2018-08-30T03:41:27.850Z,1.77
2018-08-30T03:43:56.900Z,1.83
2018-08-30T03:46:26.017Z,1.73
2018-08-30T03:48:55.791Z,1.57
2018-08-30T03:51:25.576Z,2.00
2018-08-30T03:53:54.734Z,1.70
2018-08-30T03:56:23.747Z,2.23
2018-08-30T03:58:52.792Z,1.50
2018-08-30T04:01:21.893Z,1.53
2018-08-30T04:03:50.958Z,1.53
2018-08-30T04:06:20.001Z,1.80
2018-08-30T04:08:49.052Z,1.50
2018-08-30T04:11:18.152Z,1.80
2018-08-30T04:13:47.297Z,2.13
2018-08-30T04:16:16.312Z,1.70
2018-08-30T04:18:45.934Z,1.70
2018-08-30T04:21:15.071Z,1.90
2018-08-30T04:23:44.837Z,2.13
2018-08-30T04:26:13.906Z,1.97
2018-08-30T04:28:43.015Z,2.73
2018-08-30T04:31:12.155Z,2.00
2018-08-30T04:33:41.257Z,2.37
2018-08-30T04:36:10.406Z,2.33
2018-08-30T04:38:39.543Z,2.60
2018-08-30T04:41:08.568Z,2.50
2018-08-30T04:43:37.713Z,2.00
2018-08-30T04:46:06.934Z,1.77
2018-08-30T04:48:36.303Z,2.37
2018-08-30T04:51:05.336Z,2.10
2018-08-30T04:53:35.120Z,2.40
2018-08-30T04:56:04.188Z,2.40
2018-08-30T04:58:33.399Z,2.43
2018-08-30T05:01:03.077Z,2.47
2018-08-30T05:03:32.208Z,2.50
2018-08-30T05:06:01.327Z,2.60
2018-08-30T05:08:30.561Z,2.20
2018-08-30T05:11:00.459Z,9.40
2018-08-30T05:13:29.975Z,2.87
2018-08-30T05:15:59.107Z,3.03
2018-08-30T05:18:28.098Z,2.70
2018-08-30T05:20:57.341Z,2.80
2018-08-30T05:23:27.874Z,3.03
2018-08-30T05:25:56.982Z,2.87
2018-08-30T05:28:26.143Z,2.93
2018-08-30T05:30:55.228Z,2.77
2018-08-30T05:33:24.314Z,2.97
2018-08-30T05:35:53.496Z,3.37
2018-08-30T05:38:22.519Z,2.70
2018-08-30T05:40:51.744Z,2.27
2018-08-30T05:43:20.970Z,2.93
2018-08-30T05:45:50.166Z,3.20
2018-08-30T05:48:19.219Z,2.57
2018-08-30T05:50:48.312Z,2.20
2018-08-30T05:53:17.356Z,2.60
2018-08-30T05:55:46.573Z,2.70
2018-08-30T05:58:15.729Z,3.00
2018-08-30T06:00:44.929Z,2.43
2018-08-30T06:03:14.032Z,2.40
2018-08-30T06:05:43.231Z,2.70
2018-08-30T06:08:12.370Z,3.17
2018-08-30T06:10:41.540Z,2.80
2018-08-30T06:13:10.672Z,3.40
2018-08-30T06:15:39.646Z,2.20
2018-08-30T06:18:08.765Z,2.40
2018-08-30T06:20:37.888Z,2.67
2018-08-30T06:23:07.148Z,2.73
2018-08-30T06:25:36.253Z,3.00
2018-08-30T06:28:05.418Z,2.87
2018-08-30T06:30:34.483Z,3.03
2018-08-30T06:33:03.589Z,2.50
2018-08-30T06:35:32.643Z,2.60
2018-08-30T06:38:01.773Z,2.57
2018-08-30T06:40:30.845Z,2.23
2018-08-30T06:42:59.952Z,2.90
2018-08-30T06:45:29.890Z,2.50
2018-08-30T06:47:58.968Z,2.87
2018-08-30T06:50:28.136Z,2.83
2018-08-30T06:52:57.220Z,3.97
2018-08-30T06:55:26.353Z,3.90
2018-08-30T06:57:55.398Z,4.10
2018-08-30T07:00:24.520Z,5.10
2018-08-30T07:02:53.647Z,5.17
2018-08-30T07:05:22.797Z,6.00
2018-08-30T07:07:51.922Z,6.20
2018-08-30T07:10:21.626Z,5.47
2018-08-30T07:12:51.184Z,5.17
2018-08-30T07:15:20.280Z,4.70
2018-08-30T07:17:50.061Z,4.67
2018-08-30T07:20:19.207Z,4.37
2018-08-30T07:22:48.397Z,6.23
2018-08-30T07:25:17.465Z,5.00
2018-08-30T07:27:46.650Z,5.30
2018-08-30T07:30:15.829Z,5.07
2018-08-30T07:32:44.987Z,5.80
2018-08-30T07:35:14.103Z,5.50
2018-08-30T07:37:43.155Z,5.33
2018-08-30T07:40:12.263Z,4.67
2018-08-30T07:42:41.311Z,4.83
2018-08-30T07:45:10.468Z,5.10
2018-08-30T07:47:39.662Z,5.60
2018-08-30T07:50:08.812Z,5.00
2018-08-30T07:52:37.991Z,5.13
2018-08-30T07:55:07.087Z,5.30
2018-08-30T07:57:36.464Z,4.97
2018-08-30T08:00:05.742Z,5.20
2018-08-30T08:02:34.798Z,5.10
2018-08-30T08:05:03.922Z,4.40
2018-08-30T08:07:33.106Z,4.67
2018-08-30T08:10:02.347Z,5.33
2018-08-30T08:12:31.411Z,4.93
2018-08-30T08:15:00.472Z,3.90
2018-08-30T08:17:30.125Z,4.70
2018-08-30T08:19:59.192Z,4.03
2018-08-30T08:22:28.431Z,4.20
2018-08-30T08:24:58.223Z,4.30
2018-08-30T08:27:27.357Z,4.67
2018-08-30T08:29:57.083Z,5.40
2018-08-30T08:32:26.173Z,4.60
2018-08-30T08:34:55.228Z,4.50
2018-08-30T08:37:25.029Z,4.27
2018-08-30T08:39:54.255Z,4.13
2018-08-30T08:42:23.960Z,4.17
2018-08-30T08:44:53.132Z,3.40
2018-08-30T08:47:22.230Z,3.80
2018-08-30T08:49:51.347Z,3.47
2018-08-30T08:52:20.502Z,3.23
2018-08-30T08:54:49.603Z,3.70
2018-08-30T08:57:18.628Z,3.17
2018-08-30T08:59:47.755Z,3.10
2018-08-30T09:02:16.855Z,3.63
2018-08-30T09:04:46.184Z,3.53
2018-08-30T09:07:15.502Z,3.10
2018-08-30T09:09:44.584Z,2.20
2018-08-30T09:12:13.885Z,2.70
2018-08-30T09:14:43.593Z,1.73
2018-08-30T09:17:12.696Z,2.30
2018-08-30T09:19:41.912Z,1.83
2018-08-30T09:22:11.040Z,2.17
2018-08-30T09:24:40.908Z,1.93
2018-08-30T09:27:10.523Z,2.10
2018-08-30T09:29:39.636Z,2.20
2018-08-30T09:32:08.764Z,2.03
2018-08-30T09:34:37.836Z,1.93
2018-08-30T09:37:06.966Z,2.93
2018-08-30T09:39:36.268Z,2.60
2018-08-30T09:42:05.552Z,2.53
2018-08-30T09:44:34.688Z,2.40
2018-08-30T09:47:04.217Z,2.30
2018-08-30T09:49:33.325Z,1.97
2018-08-30T09:52:02.451Z,2.70
2018-08-30T09:54:31.522Z,2.57
2018-08-30T09:57:00.821Z,2.27
2018-08-30T09:59:29.747Z,2.20
2018-08-30T10:02:07.057Z,2.10
2018-08-30T10:04:36.224Z,2.03
2018-08-30T10:07:05.450Z,2.47
2018-08-30T10:09:34.603Z,2.53
2018-08-30T10:12:03.837Z,2.20
2018-08-30T10:14:33.004Z,2.37
2018-08-30T10:17:02.527Z,2.20
2018-08-30T10:19:33.191Z,2.00
2018-08-30T10:22:02.427Z,2.03
2018-08-30T10:24:31.620Z,1.80
2018-08-30T10:27:00.724Z,2.40
2018-08-30T10:29:29.812Z,2.43
2018-08-30T10:31:59.003Z,2.43
2018-08-30T10:34:28.166Z,2.60
2018-08-30T10:36:57.996Z,2.33
2018-08-30T10:39:27.023Z,2.53
2018-08-30T10:41:56.142Z,2.70
2018-08-30T10:44:25.280Z,3.03
2018-08-30T10:46:55.012Z,2.33
2018-08-30T10:49:24.319Z,2.43
2018-08-30T10:51:53.445Z,2.87
2018-08-30T10:54:22.570Z,3.27
2018-08-30T10:56:51.706Z,2.63
2018-08-30T10:59:20.942Z,2.90
2018-08-30T11:01:50.217Z,2.67
2018-08-30T11:04:19.513Z,4.03
2018-08-30T11:06:48.619Z,3.93
2018-08-30T11:09:17.781Z,4.17
2018-08-30T11:11:47.015Z,4.07
2018-08-30T11:14:16.563Z,4.10
2018-08-30T11:16:45.612Z,4.00
2018-08-30T11:19:14.885Z,4.23
2018-08-30T11:21:43.954Z,3.90
2018-08-30T11:24:13.218Z,4.27
2018-08-30T11:26:42.336Z,3.27
2018-08-30T11:29:11.556Z,4.13
2018-08-30T11:31:40.709Z,3.67
2018-08-30T11:34:09.892Z,4.10
2018-08-30T11:36:39.614Z,4.00
2018-08-30T11:39:09.315Z,4.20
2018-08-30T11:41:38.836Z,4.10
2018-08-30T11:44:09.049Z,3.60
2018-08-30T11:46:38.347Z,4.80
2018-08-30T11:49:07.453Z,4.30
2018-08-30T11:51:36.639Z,4.53
2018-08-30T11:54:05.915Z,4.17
2018-08-30T11:56:35.034Z,4.10
2018-08-30T11:59:04.968Z,5.40
2018-08-30T12:01:34.051Z,3.80
2018-08-30T12:04:03.661Z,5.00
2018-08-30T12:06:32.910Z,4.63
2018-08-30T12:09:03.091Z,4.60
2018-08-30T12:11:32.332Z,4.57
2018-08-30T12:14:02.321Z,4.40
2018-08-30T12:16:31.484Z,5.03
2018-08-30T12:19:00.544Z,4.57
2018-08-30T12:21:29.796Z,4.83
2018-08-30T12:23:59.681Z,5.40
2018-08-30T12:26:28.855Z,5.60
2018-08-30T12:28:58.203Z,4.60
2018-08-30T12:31:27.313Z,6.07
2018-08-30T12:33:56.509Z,4.93
2018-08-30T12:36:25.549Z,5.50
2018-08-30T12:38:54.735Z,5.70
2018-08-30T12:41:23.961Z,5.43
2018-08-30T12:43:53.256Z,5.13
2018-08-30T12:46:22.301Z,5.30
2018-08-30T12:48:51.316Z,5.70
2018-08-30T12:51:20.563Z,5.73
2018-08-30T12:53:50.091Z,4.90
2018-08-30T12:56:19.297Z,5.03
2018-08-30T12:58:48.434Z,5.73
2018-08-30T13:01:17.590Z,5.80
2018-08-30T13:03:46.688Z,5.90
2018-08-30T13:06:15.883Z,6.87
2018-08-30T13:08:44.967Z,5.97
2018-08-30T13:11:14.152Z,6.90
2018-08-30T13:13:43.510Z,6.10
2018-08-30T13:16:12.381Z,6.23
2018-08-30T13:18:41.518Z,5.80
2018-08-30T13:21:10.721Z,6.97
2018-08-30T13:23:40.012Z,7.00
2018-08-30T13:26:09.078Z,6.87
2018-08-30T13:28:38.201Z,7.00
2018-08-30T13:31:07.626Z,6.00
2018-08-30T13:33:37.018Z,7.40
2018-08-30T13:36:06.122Z,7.77
2018-08-30T13:38:35.415Z,6.50
2018-08-30T13:41:04.726Z,6.37
2018-08-30T13:43:33.816Z,6.40
2018-08-30T13:46:03.042Z,7.47
2018-08-30T13:48:32.178Z,6.90
2018-08-30T13:51:01.687Z,5.93
2018-08-30T13:53:30.796Z,6.27
2018-08-30T13:56:00.245Z,6.63
2018-08-30T13:58:29.692Z,7.93
2018-08-30T14:00:59.842Z,7.03
2018-08-30T14:03:28.344Z,7.23
2018-08-30T14:05:57.651Z,6.57
2018-08-30T14:08:27.989Z,6.40
2018-08-30T14:10:57.927Z,6.33
2018-08-30T14:13:27.563Z,6.40
2018-08-30T14:15:56.439Z,6.80
2018-08-30T14:18:25.480Z,6.30
2018-08-30T14:20:54.599Z,7.40
2018-08-30T14:23:23.949Z,5.83
2018-08-30T14:25:53.106Z,6.20
2018-08-30T14:28:22.341Z,7.67
2018-08-30T14:30:51.772Z,7.37
2018-08-30T14:33:21.004Z,6.87
2018-08-30T14:35:50.049Z,6.47
2018-08-30T14:38:19.872Z,6.63
2018-08-30T14:40:49.246Z,7.00
2018-08-30T14:43:19.032Z,6.50
2018-08-30T14:45:48.208Z,6.43
2018-08-30T14:48:17.381Z,6.83
2018-08-30T14:50:46.617Z,6.77
2018-08-30T14:53:15.880Z,6.57
2018-08-30T14:55:44.904Z,6.17
2018-08-30T14:58:13.973Z,6.10
2018-08-30T15:00:43.159Z,6.73
2018-08-30T15:03:12.333Z,6.20
2018-08-30T15:05:42.301Z,6.97
2018-08-30T15:08:11.369Z,6.50
2018-08-30T15:10:40.532Z,7.10
2018-08-30T15:13:09.524Z,6.50
2018-08-30T15:15:38.548Z,6.90
2018-08-30T15:18:07.761Z,6.70
2018-08-30T15:20:36.878Z,7.37
2018-08-30T15:23:06.704Z,7.20
2018-08-30T15:25:36.334Z,7.50
2018-08-30T15:28:06.118Z,6.80
2018-08-30T15:30:35.292Z,6.13
2018-08-30T15:33:04.387Z,7.07
2018-08-30T15:35:33.568Z,7.47
2018-08-30T15:38:02.696Z,7.20
2018-08-30T15:40:32.010Z,6.80
2018-08-30T15:43:01.889Z,7.47
2018-08-30T15:45:31.089Z,6.40
2018-08-30T15:48:01.432Z,7.17
2018-08-30T15:50:30.639Z,6.83
2018-08-30T15:52:59.780Z,7.10
2018-08-30T15:55:28.906Z,6.97
2018-08-30T15:57:58.689Z,8.00
2018-08-30T16:00:28.541Z,8.33
2018-08-30T16:02:57.648Z,6.67
2018-08-30T16:05:26.984Z,6.90
2018-08-30T16:07:56.033Z,7.60
2018-08-30T16:10:25.192Z,8.43
2018-08-30T16:12:54.433Z,7.93
2018-08-30T16:15:23.524Z,6.93
2018-08-30T16:17:52.602Z,7.83
2018-08-30T16:20:21.880Z,7.37
2018-08-30T16:23:02.899Z,6.40
2018-08-30T16:25:32.034Z,7.97
2018-08-30T16:28:01.260Z,7.47
2018-08-30T16:30:30.556Z,7.27
2018-08-30T16:32:59.485Z,7.43
2018-08-30T16:35:28.660Z,7.43
2018-08-30T16:37:57.944Z,6.37
2018-08-30T16:40:27.108Z,7.73
2018-08-30T16:42:56.143Z,6.97
2018-08-30T16:45:25.320Z,6.90
2018-08-30T16:47:54.532Z,7.70
2018-08-30T16:50:23.598Z,7.67
2018-08-30T16:52:52.749Z,7.13
2018-08-30T16:55:21.896Z,7.10
2018-08-30T16:57:51.904Z,7.07
2018-08-30T17:00:21.015Z,7.47
2018-08-30T17:02:50.106Z,7.77
2018-08-30T17:05:19.217Z,7.57
2018-08-30T17:07:48.292Z,7.00
2018-08-30T17:10:17.526Z,7.07
2018-08-30T17:12:46.524Z,6.80
2018-08-30T17:15:15.842Z,7.80
2018-08-30T17:17:45.066Z,7.30
2018-08-30T17:20:48.281Z,7.10
2018-08-30T17:23:18.577Z,7.87
2018-08-30T17:25:47.714Z,7.13
2018-08-30T17:28:16.867Z,7.53
2018-08-30T17:30:46.061Z,7.80
2018-08-30T17:33:15.338Z,7.93
2018-08-30T17:35:45.156Z,8.47
2018-08-30T17:38:14.291Z,8.30
2018-08-30T17:40:43.453Z,7.47
2018-08-30T17:43:12.521Z,7.50
2018-08-30T17:45:42.307Z,7.20
2018-08-30T17:48:11.533Z,7.83
2018-08-30T17:50:40.861Z,7.17
2018-08-30T17:53:10.047Z,7.33
2018-08-30T17:55:39.543Z,7.90
2018-08-30T17:58:08.503Z,8.10
2018-08-30T18:00:37.774Z,7.53
2018-08-30T18:03:06.780Z,8.50
2018-08-30T18:05:35.908Z,6.47
2018-08-30T18:08:05.107Z,8.17
2018-08-30T18:10:34.231Z,7.60
2018-08-30T18:13:03.285Z,7.80
2018-08-30T18:15:32.429Z,7.27
2018-08-30T18:18:01.565Z,8.40
2018-08-30T18:20:30.630Z,7.23
2018-08-30T18:22:59.737Z,7.83
2018-08-30T18:25:28.908Z,7.77
2018-08-30T18:27:58.008Z,8.00
2018-08-30T18:30:27.109Z,6.90
2018-08-30T18:32:56.316Z,7.03
2018-08-30T18:35:25.501Z,7.17
2018-08-30T18:37:54.680Z,8.20
2018-08-30T18:40:23.827Z,6.37
2018-08-30T18:42:52.840Z,7.27
2018-08-30T18:45:21.965Z,6.37
2018-08-30T18:47:51.044Z,7.17
2018-08-30T18:50:20.196Z,6.93
2018-08-30T18:52:49.363Z,6.53
2018-08-30T18:55:18.490Z,7.67
2018-08-30T18:57:47.541Z,7.33
2018-08-30T19:00:16.730Z,8.40
2018-08-30T19:02:46.298Z,7.10
2018-08-30T19:05:15.500Z,7.33
2018-08-30T19:07:45.911Z,7.93
2018-08-30T19:10:15.003Z,7.30
2018-08-30T19:12:44.327Z,6.00
2018-08-30T19:15:18.967Z,7.77
2018-08-30T19:18:54.953Z,7.00
2018-08-30T19:21:24.330Z,7.10
2018-08-30T19:23:53.742Z,7.30
2018-08-30T19:26:22.816Z,6.80
2018-08-30T19:28:52.133Z,6.60
2018-08-30T19:31:21.232Z,8.07
2018-08-30T19:33:52.781Z,7.60
2018-08-30T19:36:28.247Z,7.30
2018-08-30T19:38:57.277Z,7.33
2018-08-30T19:41:26.484Z,8.07
2018-08-30T19:43:55.630Z,7.40
2018-08-30T19:46:24.915Z,7.57
2018-08-30T19:48:53.967Z,6.70
2018-08-30T19:51:23.102Z,7.27
2018-08-30T19:53:52.823Z,7.17
2018-08-30T19:56:21.881Z,8.10
2018-08-30T19:58:50.930Z,7.23
2018-08-30T20:01:20.051Z,7.40
2018-08-30T20:03:49.141Z,7.63
2018-08-30T20:06:18.256Z,7.60
2018-08-30T20:08:47.315Z,7.33
2018-08-30T20:11:17.135Z,8.00
2018-08-30T20:13:47.441Z,8.13
2018-08-30T20:16:16.552Z,7.93
2018-08-30T20:18:45.631Z,8.93
2018-08-30T20:21:14.724Z,8.10
2018-08-30T20:23:43.854Z,8.30
2018-08-30T20:26:13.112Z,7.60
2018-08-30T20:28:42.826Z,8.43
2018-08-30T20:31:11.887Z,8.37
2018-08-30T20:33:41.041Z,7.10
2018-08-30T20:36:10.268Z,7.80
2018-08-30T20:38:39.372Z,7.90
2018-08-30T20:41:08.528Z,8.37
2018-08-30T20:43:37.568Z,8.57
2018-08-30T20:46:06.804Z,8.27
2018-08-30T20:48:35.880Z,8.03
2018-08-30T20:51:05.142Z,8.10
2018-08-30T20:53:34.318Z,9.00
2018-08-30T20:56:03.356Z,8.33
2018-08-30T21:01:07.731Z,7.87
2018-08-30T21:03:36.809Z,7.40
2018-08-30T21:06:07.018Z,7.77
2018-08-30T21:08:36.077Z,8.70
2018-08-30T21:11:05.568Z,7.53
2018-08-30T21:13:35.313Z,8.43
2018-08-30T21:16:04.516Z,9.43
2018-08-30T21:18:33.588Z,8.57
2018-08-30T21:21:02.743Z,8.43
2018-08-30T21:23:31.772Z,9.13
2018-08-30T21:26:00.885Z,7.60
2018-08-30T21:28:29.995Z,9.00
2018-08-30T21:30:59.049Z,9.10
2018-08-30T21:33:28.211Z,8.83
2018-08-30T21:35:57.456Z,7.57
2018-08-30T21:38:26.625Z,8.90
2018-08-30T21:40:55.692Z,8.97
2018-08-30T21:43:24.779Z,8.50
2018-08-30T21:45:54.013Z,8.90
2018-08-30T21:48:23.103Z,8.60
2018-08-30T21:50:52.137Z,8.00
2018-08-30T21:53:21.893Z,8.97
2018-08-30T21:55:50.924Z,8.90
2018-08-30T21:58:20.083Z,9.63
2018-08-30T22:00:49.244Z,8.10
2018-08-30T22:03:18.318Z,9.70
2018-08-30T22:05:47.440Z,8.30
2018-08-30T22:08:16.564Z,9.80
2018-08-30T22:10:45.582Z,9.60
2018-08-30T22:13:14.686Z,8.10
2018-08-30T22:15:43.993Z,8.30
2018-08-30T22:18:13.135Z,9.97
2018-08-30T22:20:42.361Z,8.73
2018-08-30T22:23:11.581Z,8.80
2018-08-30T22:25:40.691Z,9.30
2018-08-30T22:28:09.806Z,9.07
2018-08-30T22:30:38.996Z,9.17
2018-08-30T22:33:08.068Z,8.57
2018-08-30T22:35:37.184Z,8.93
2018-08-30T22:38:06.268Z,8.67
2018-08-30T22:40:35.387Z,9.80
2018-08-30T22:43:04.487Z,8.53
2018-08-30T22:45:33.595Z,8.67
2018-08-30T22:48:02.761Z,8.73
2018-08-30T22:50:31.791Z,9.37
2018-08-30T22:53:01.271Z,9.70
2018-08-30T22:55:30.336Z,10.87
2018-08-30T22:57:59.440Z,10.00
2018-08-30T23:00:28.580Z,9.17
2018-08-30T23:02:58.292Z,9.10
2018-08-30T23:05:27.512Z,9.63
2018-08-30T23:07:56.644Z,9.80
2018-08-30T23:10:25.836Z,10.50
2018-08-30T23:12:55.026Z,10.30
2018-08-30T23:15:24.649Z,10.30
2018-08-30T23:17:53.732Z,9.77
2018-08-30T23:20:22.791Z,11.67
2018-08-30T23:22:51.949Z,10.40
2018-08-30T23:25:21.056Z,11.33
2018-08-30T23:27:50.175Z,11.10
2018-08-30T23:30:19.307Z,10.30
2018-08-30T23:32:48.365Z,11.67
2018-08-30T23:35:17.438Z,11.77
2018-08-30T23:37:46.499Z,10.10
2018-08-30T23:40:15.612Z,9.27
2018-08-30T23:42:44.717Z,11.00
2018-08-30T23:45:15.090Z,10.77
2018-08-30T23:47:44.121Z,10.90
2018-08-30T23:50:13.916Z,10.17
2018-08-30T23:52:43.011Z,11.43
2018-08-30T23:55:12.129Z,10.63
2018-08-30T23:57:52.400Z,11.70
